createdAt,value
2018-06-01T00:01:27.210Z,54.70
2018-06-01T00:03:54.847Z,54.10
2018-06-01T00:06:23.191Z,54.20
2018-06-01T00:08:50.779Z,54.10
2018-06-01T00:11:19.114Z,54.30
2018-06-01T00:13:46.712Z,54.20
2018-06-01T00:16:14.270Z,54.30
2018-06-01T00:18:41.868Z,54.20
2018-06-01T00:21:10.194Z,54.30
2018-06-01T00:23:37.791Z,54.30
2018-06-01T00:26:05.351Z,54.30
2018-06-01T00:28:32.930Z,54.20
2018-06-01T00:31:00.511Z,54.20
2018-06-01T00:33:28.829Z,54.10
2018-06-01T00:35:56.439Z,54.10
2018-06-01T00:38:24.011Z,54.10
2018-06-01T00:40:51.607Z,54.10
2018-06-01T00:43:19.160Z,54.10
2018-06-01T00:45:47.520Z,54.10
2018-06-01T00:48:15.097Z,54.00
2018-06-01T00:50:43.470Z,54.30
2018-06-01T00:53:11.034Z,54.10
2018-06-01T00:55:38.647Z,54.80
2018-06-01T00:58:06.216Z,54.60
2018-06-01T01:00:33.812Z,54.30
2018-06-01T01:03:01.397Z,54.30
2018-06-01T01:05:28.994Z,54.40
2018-06-01T01:07:56.625Z,54.40
2018-06-01T01:10:24.221Z,54.40
2018-06-01T01:12:51.790Z,54.80
2018-06-01T01:15:19.344Z,54.40
2018-06-01T01:17:46.958Z,54.40
2018-06-01T01:20:14.583Z,54.40
2018-06-01T01:22:42.187Z,54.50
2018-06-01T01:25:09.756Z,54.40
2018-06-01T01:27:37.337Z,54.40
2018-06-01T01:30:04.901Z,54.40
2018-06-01T01:32:32.500Z,54.50
2018-06-01T01:35:00.834Z,54.50
2018-06-01T01:37:31.265Z,54.40
2018-06-01T01:39:58.838Z,54.50
2018-06-01T01:42:26.431Z,54.50
2018-06-01T01:44:54.753Z,54.60
2018-06-01T01:47:22.350Z,54.50
2018-06-01T01:49:53.854Z,54.60
2018-06-01T01:52:21.493Z,54.60
2018-06-01T01:54:49.855Z,54.60
2018-06-01T01:57:17.499Z,54.60
2018-06-01T01:59:45.089Z,54.60
2018-06-01T02:02:12.715Z,54.50
2018-06-01T02:04:40.263Z,54.50
2018-06-01T02:07:07.858Z,54.60
2018-06-01T02:09:35.448Z,54.60
2018-06-01T02:12:03.018Z,54.60
2018-06-01T02:14:30.607Z,54.60
2018-06-01T02:16:58.920Z,54.70
2018-06-01T02:19:26.510Z,54.60
2018-06-01T02:21:54.083Z,54.70
2018-06-01T02:24:21.805Z,54.80
2018-06-01T02:26:49.338Z,54.70
2018-06-01T02:29:17.706Z,54.90
2018-06-01T02:31:45.297Z,54.70
2018-06-01T02:34:13.647Z,54.80
2018-06-01T02:36:41.194Z,54.80
2018-06-01T02:39:08.798Z,54.80
2018-06-01T02:41:36.361Z,54.90
2018-06-01T02:44:03.957Z,54.90
2018-06-01T02:46:31.526Z,54.80
2018-06-01T02:48:59.132Z,54.80
2018-06-01T02:51:27.507Z,54.80
2018-06-01T02:53:55.083Z,54.80
2018-06-01T02:56:22.668Z,54.80
2018-06-01T02:58:51.001Z,54.70
2018-06-01T03:01:18.590Z,54.70
2018-06-01T03:03:46.160Z,54.80
2018-06-01T03:06:13.751Z,54.80
2018-06-01T03:08:41.473Z,54.80
2018-06-01T03:11:09.061Z,54.90
2018-06-01T03:13:36.617Z,54.90
2018-06-01T03:16:04.209Z,54.90
2018-06-01T03:18:31.744Z,55.00
2018-06-01T03:20:59.329Z,55.00
2018-06-01T03:23:26.904Z,55.00
2018-06-01T03:25:54.494Z,55.10
2018-06-01T03:28:22.810Z,54.90
2018-06-01T03:30:51.183Z,55.00
2018-06-01T03:33:18.854Z,54.80
2018-06-01T03:35:46.484Z,55.00
2018-06-01T03:38:14.870Z,55.00
2018-06-01T03:40:43.363Z,55.00
2018-06-01T03:43:11.671Z,55.00
2018-06-01T03:45:39.251Z,54.90
2018-06-01T03:48:06.836Z,55.10
2018-06-01T03:50:34.397Z,55.00
2018-06-01T03:53:02.043Z,55.00
2018-06-01T03:55:29.590Z,55.00
2018-06-01T03:57:57.192Z,55.00
2018-06-01T04:00:24.760Z,55.00
2018-06-01T04:02:52.358Z,54.90
2018-06-01T04:05:20.674Z,54.90
2018-06-01T04:07:48.274Z,54.90
2018-06-01T04:10:16.691Z,54.90
2018-06-01T04:12:45.042Z,54.80
2018-06-01T04:15:12.599Z,54.80
2018-06-01T04:17:40.186Z,54.80
2018-06-01T04:20:08.519Z,55.00
2018-06-01T04:22:36.116Z,54.90
2018-06-01T04:25:03.663Z,55.00
2018-06-01T04:27:31.261Z,55.00
2018-06-01T04:29:58.818Z,54.90
2018-06-01T04:32:26.380Z,54.90
2018-06-01T04:34:54.128Z,54.90
2018-06-01T04:37:21.698Z,54.70
2018-06-01T04:39:49.287Z,54.70
2018-06-01T04:42:16.848Z,54.60
2018-06-01T04:44:44.428Z,54.50
2018-06-01T04:47:12.750Z,54.80
2018-06-01T04:49:41.135Z,54.40
2018-06-01T04:52:08.715Z,54.40
2018-06-01T04:54:36.324Z,54.50
2018-06-01T04:57:04.641Z,54.30
2018-06-01T04:59:32.241Z,54.40
2018-06-01T05:01:59.793Z,54.40
2018-06-01T05:04:27.352Z,54.30
2018-06-01T05:06:54.941Z,54.30
2018-06-01T05:09:22.545Z,54.50
2018-06-01T05:11:50.856Z,54.50
2018-06-01T05:14:18.579Z,54.30
2018-06-01T05:16:46.443Z,54.30
2018-06-01T05:19:14.032Z,54.30
2018-06-01T05:21:42.390Z,54.40
2018-06-01T05:24:09.945Z,54.40
2018-06-01T05:26:37.536Z,53.90
2018-06-01T05:29:05.887Z,54.30
2018-06-01T05:31:33.458Z,54.20
2018-06-01T05:34:01.013Z,54.20
2018-06-01T05:36:28.594Z,54.10
2018-06-01T05:38:56.145Z,53.90
2018-06-01T05:41:23.727Z,53.90
2018-06-01T05:43:51.291Z,54.00
2018-06-01T05:46:18.880Z,54.00
2018-06-01T05:48:46.455Z,54.10
2018-06-01T05:51:14.047Z,54.10
2018-06-01T05:53:41.611Z,54.00
2018-06-01T05:56:09.195Z,53.90
2018-06-01T05:58:36.748Z,53.90
2018-06-01T06:01:04.336Z,54.50
2018-06-01T06:03:31.927Z,53.80
2018-06-01T06:06:00.249Z,53.70
2018-06-01T06:08:27.851Z,53.60
2018-06-01T06:10:55.432Z,53.70
2018-06-01T06:13:23.027Z,53.70
2018-06-01T06:15:50.645Z,53.70
2018-06-01T06:18:18.196Z,53.60
2018-06-01T06:20:45.780Z,53.60
2018-06-01T06:23:13.369Z,53.70
2018-06-01T06:25:41.744Z,53.60
2018-06-01T06:28:09.307Z,53.60
2018-06-01T06:30:36.859Z,53.60
2018-06-01T06:33:04.522Z,53.60
2018-06-01T06:35:32.122Z,53.60
2018-06-01T06:38:00.464Z,53.50
2018-06-01T06:40:28.042Z,53.50
2018-06-01T06:42:55.607Z,53.50
2018-06-01T06:45:23.192Z,53.30
2018-06-01T06:47:51.504Z,53.60
2018-06-01T06:50:19.083Z,53.60
2018-06-01T06:52:46.629Z,53.70
2018-06-01T06:55:14.270Z,53.70
2018-06-01T06:57:41.865Z,53.60
2018-06-01T07:00:09.447Z,53.60
2018-06-01T07:02:37.014Z,53.70
2018-06-01T07:05:04.589Z,53.70
2018-06-01T07:07:32.140Z,53.60
2018-06-01T07:09:59.723Z,53.50
2018-06-01T07:12:27.271Z,53.50
2018-06-01T07:14:54.858Z,53.40
2018-06-01T07:17:23.223Z,53.30
2018-06-01T07:19:50.910Z,53.30
2018-06-01T07:22:18.476Z,53.20
2018-06-01T07:24:46.847Z,53.10
2018-06-01T07:27:14.395Z,53.10
2018-06-01T07:29:41.970Z,53.00
2018-06-01T07:32:09.528Z,53.00
2018-06-01T07:34:37.112Z,53.00
2018-06-01T07:37:05.487Z,53.00
2018-06-01T07:39:33.048Z,53.00
2018-06-01T07:42:00.594Z,53.10
2018-06-01T07:44:28.203Z,53.20
2018-06-01T07:46:55.814Z,53.10
2018-06-01T07:49:23.374Z,52.40
2018-06-01T07:51:50.951Z,52.90
2018-06-01T07:54:18.506Z,52.90
2018-06-01T07:56:46.078Z,52.80
2018-06-01T07:59:13.630Z,52.80
2018-06-01T08:01:41.233Z,52.70
2018-06-01T08:04:08.781Z,52.70
2018-06-01T08:06:36.358Z,52.70
2018-06-01T08:09:03.904Z,52.60
2018-06-01T08:11:31.491Z,52.60
2018-06-01T08:13:59.038Z,52.60
2018-06-01T08:16:26.581Z,52.50
2018-06-01T08:18:54.210Z,52.40
2018-06-01T08:21:21.801Z,52.40
2018-06-01T08:23:50.106Z,52.40
2018-06-01T08:26:17.672Z,52.40
2018-06-01T08:28:45.246Z,52.40
2018-06-01T08:31:12.792Z,52.30
2018-06-01T08:33:40.480Z,52.20
2018-06-01T08:36:08.023Z,52.20
2018-06-01T08:38:35.566Z,52.20
2018-06-01T08:41:03.929Z,52.10
2018-06-01T08:43:32.292Z,52.10
2018-06-01T08:45:59.887Z,52.00
2018-06-01T08:48:28.243Z,52.00
2018-06-01T08:50:55.825Z,52.00
2018-06-01T08:53:23.373Z,52.00
2018-06-01T08:55:50.957Z,52.00
2018-06-01T08:58:18.537Z,51.90
2018-06-01T09:00:46.894Z,51.80
2018-06-01T09:03:14.453Z,51.70
2018-06-01T09:05:42.035Z,51.60
2018-06-01T09:08:10.029Z,51.60
2018-06-01T09:10:38.368Z,51.40
2018-06-01T09:13:05.919Z,51.40
2018-06-01T09:15:33.493Z,51.30
2018-06-01T09:18:01.048Z,51.20
2018-06-01T09:20:28.623Z,51.20
2018-06-01T09:22:56.166Z,51.10
2018-06-01T09:25:23.759Z,51.00
2018-06-01T09:27:51.329Z,50.90
2018-06-01T09:30:18.908Z,50.90
2018-06-01T09:32:46.456Z,50.70
2018-06-01T09:35:14.049Z,50.70
2018-06-01T09:37:42.379Z,50.50
2018-06-01T09:40:09.962Z,50.50
2018-06-01T09:42:37.519Z,50.40
2018-06-01T09:45:05.105Z,50.20
2018-06-01T09:47:32.706Z,49.70
2018-06-01T09:50:00.269Z,49.60
2018-06-01T09:52:27.863Z,49.70
2018-06-01T09:54:55.426Z,49.70
2018-06-01T09:57:23.015Z,49.70
2018-06-01T09:59:50.575Z,49.80
2018-06-01T10:02:18.156Z,49.80
2018-06-01T10:04:45.728Z,49.80
2018-06-01T10:07:13.323Z,49.80
2018-06-01T10:09:41.656Z,49.60
2018-06-01T10:12:09.241Z,49.60
2018-06-01T10:14:36.796Z,49.50
2018-06-01T10:17:04.381Z,49.50
2018-06-01T10:19:32.741Z,49.40
2018-06-01T10:22:00.275Z,49.40
2018-06-01T10:24:27.861Z,49.40
2018-06-01T10:26:55.416Z,49.50
2018-06-01T10:29:22.996Z,49.70
2018-06-01T10:31:50.565Z,49.50
2018-06-01T10:34:18.159Z,49.40
2018-06-01T10:36:46.510Z,49.40
2018-06-01T10:39:14.101Z,49.40
2018-06-01T10:41:41.682Z,49.20
2018-06-01T10:44:10.011Z,48.70
2018-06-01T10:46:37.598Z,48.80
2018-06-01T10:49:05.158Z,48.70
2018-06-01T10:51:32.745Z,48.80
2018-06-01T10:54:01.071Z,48.90
2018-06-01T10:56:28.651Z,48.70
2018-06-01T10:58:56.199Z,48.70
2018-06-01T11:01:23.771Z,48.60
2018-06-01T11:03:51.329Z,48.60
2018-06-01T11:06:18.903Z,48.60
2018-06-01T11:08:46.463Z,48.60
2018-06-01T11:11:14.064Z,48.50
2018-06-01T11:13:41.700Z,48.40
2018-06-01T11:16:10.017Z,48.20
2018-06-01T11:18:37.580Z,48.20
2018-06-01T11:21:05.138Z,48.20
2018-06-01T11:23:32.743Z,48.10
2018-06-01T11:26:01.076Z,48.10
2018-06-01T11:28:28.669Z,48.10
2018-06-01T11:30:56.222Z,48.20
2018-06-01T11:33:23.873Z,48.30
2018-06-01T11:35:51.434Z,48.40
2018-06-01T11:38:19.036Z,48.40
2018-06-01T11:40:46.601Z,48.30
2018-06-01T11:43:14.959Z,48.20
2018-06-01T11:45:42.561Z,48.10
2018-06-01T11:48:10.160Z,48.10
2018-06-01T11:50:37.715Z,48.10
2018-06-01T11:53:05.285Z,48.00
2018-06-01T11:55:33.640Z,47.80
2018-06-01T11:58:01.945Z,47.80
2018-06-01T12:00:29.534Z,47.70
2018-06-01T12:02:57.102Z,47.80
2018-06-01T12:05:24.944Z,47.90
2018-06-01T12:07:52.526Z,48.00
2018-06-01T12:10:20.140Z,48.00
2018-06-01T12:12:48.520Z,48.80
2018-06-01T12:15:16.118Z,48.20
2018-06-01T12:17:43.743Z,48.20
2018-06-01T12:20:11.295Z,48.10
2018-06-01T12:22:38.849Z,47.90
2018-06-01T12:25:06.433Z,47.60
2018-06-01T12:27:34.008Z,47.50
2018-06-01T12:30:01.622Z,47.20
2018-06-01T12:32:29.192Z,47.10
2018-06-01T12:34:56.762Z,47.10
2018-06-01T12:37:24.354Z,47.10
2018-06-01T12:39:51.914Z,47.30
2018-06-01T12:42:19.511Z,47.40
2018-06-01T12:44:47.850Z,47.50
2018-06-01T12:47:15.454Z,47.50
2018-06-01T12:49:43.783Z,47.60
2018-06-01T12:52:11.525Z,47.60
2018-06-01T12:54:39.127Z,47.70
2018-06-01T12:57:06.707Z,47.70
2018-06-01T12:59:34.265Z,47.80
2018-06-01T13:02:01.851Z,47.70
2018-06-01T13:04:29.436Z,47.70
2018-06-01T13:06:57.058Z,47.50
2018-06-01T13:09:24.648Z,47.60
2018-06-01T13:11:52.247Z,48.00
2018-06-01T13:14:19.836Z,47.40
2018-06-01T13:16:47.395Z,47.40
2018-06-01T13:19:14.988Z,47.30
2018-06-01T13:21:42.582Z,47.40
2018-06-01T13:24:10.179Z,47.40
2018-06-01T13:26:37.734Z,47.30
2018-06-01T13:29:05.399Z,47.20
2018-06-01T13:31:33.768Z,47.30
2018-06-01T13:34:02.124Z,47.40
2018-06-01T13:36:29.684Z,47.80
2018-06-01T13:38:57.324Z,47.20
2018-06-01T13:41:24.974Z,47.20
2018-06-01T13:43:52.566Z,47.00
2018-06-01T13:46:20.144Z,46.80
2018-06-01T13:48:47.742Z,46.70
2018-06-01T13:51:16.082Z,46.70
2018-06-01T13:53:43.684Z,46.60
2018-06-01T13:56:11.258Z,46.60
2018-06-01T13:58:39.704Z,46.30
2018-06-01T14:01:08.096Z,46.30
2018-06-01T14:03:35.900Z,46.30
2018-06-01T14:06:03.510Z,46.10
2018-06-01T14:08:31.064Z,46.10
2018-06-01T14:10:58.667Z,46.20
2018-06-01T14:13:26.249Z,46.20
2018-06-01T14:15:54.613Z,46.10
2018-06-01T14:18:22.178Z,46.10
2018-06-01T14:20:49.780Z,46.10
2018-06-01T14:23:18.117Z,46.10
2018-06-01T14:25:45.726Z,46.10
2018-06-01T14:28:13.284Z,46.30
2018-06-01T14:30:40.896Z,46.40
2018-06-01T14:33:08.520Z,46.40
2018-06-01T14:35:36.106Z,46.50
2018-06-01T14:38:03.705Z,46.60
2018-06-01T14:40:31.367Z,46.60
2018-06-01T14:42:58.889Z,46.70
2018-06-01T14:45:27.228Z,46.50
2018-06-01T14:47:54.816Z,46.50
2018-06-01T14:50:22.376Z,46.40
2018-06-01T14:52:49.985Z,46.30
2018-06-01T14:55:17.557Z,46.30
2018-06-01T14:57:45.163Z,46.30
2018-06-01T15:00:12.712Z,46.20
2018-06-01T15:02:40.297Z,46.30
2018-06-01T15:05:07.868Z,46.30
2018-06-01T15:07:35.458Z,46.40
2018-06-01T15:10:03.020Z,46.30
2018-06-01T15:12:31.379Z,46.30
2018-06-01T15:14:58.976Z,46.30
2018-06-01T15:17:26.584Z,46.20
2018-06-01T15:19:54.167Z,46.30
2018-06-01T15:22:21.775Z,46.40
2018-06-01T15:24:49.380Z,46.50
2018-06-01T15:27:16.941Z,46.60
2018-06-01T15:29:44.522Z,46.40
2018-06-01T15:32:12.094Z,46.50
2018-06-01T15:34:39.694Z,46.70
2018-06-01T15:37:07.248Z,47.00
2018-06-01T15:39:35.629Z,47.80
2018-06-01T15:42:03.959Z,48.10
2018-06-01T15:44:31.546Z,48.10
2018-06-01T15:46:59.120Z,48.40
2018-06-01T15:49:26.722Z,48.80
2018-06-01T15:51:54.284Z,48.90
2018-06-01T15:54:22.041Z,49.00
2018-06-01T15:56:50.498Z,49.70
2018-06-01T15:59:18.776Z,49.60
2018-06-01T16:01:46.353Z,49.80
2018-06-01T16:04:14.859Z,50.00
2018-06-01T16:06:43.179Z,50.40
2018-06-01T16:09:10.995Z,50.30
2018-06-01T16:11:38.601Z,50.50
2018-06-01T16:14:06.176Z,50.50
2018-06-01T16:16:33.765Z,50.70
2018-06-01T16:19:02.044Z,51.00
2018-06-01T16:21:29.734Z,51.00
2018-06-01T16:23:58.075Z,51.40
2018-06-01T16:26:25.679Z,51.40
2018-06-01T16:28:54.125Z,51.50
2018-06-01T16:31:21.787Z,51.70
2018-06-01T16:33:50.967Z,51.80
2018-06-01T16:36:19.309Z,52.00
2018-06-01T16:38:46.858Z,52.00
2018-06-01T16:41:14.435Z,52.20
2018-06-01T16:43:41.984Z,52.50
2018-06-01T16:46:09.573Z,52.60
2018-06-01T16:48:37.122Z,52.80
2018-06-01T16:51:04.679Z,52.90
2018-06-01T16:53:32.272Z,53.00
2018-06-01T16:55:59.871Z,53.00
2018-06-01T16:58:27.416Z,52.70
2018-06-01T17:00:55.772Z,53.90
2018-06-01T17:03:23.333Z,53.30
2018-06-01T17:05:50.931Z,53.30
2018-06-01T17:08:19.251Z,53.40
2018-06-01T17:10:46.836Z,53.30
2018-06-01T17:13:14.462Z,53.50
2018-06-01T17:15:42.012Z,53.60
2018-06-01T17:18:10.358Z,53.90
2018-06-01T17:20:37.943Z,53.80
2018-06-01T17:23:05.499Z,54.50
2018-06-01T17:25:33.053Z,54.10
2018-06-01T17:28:00.635Z,54.10
2018-06-01T17:30:28.188Z,54.20
2018-06-01T17:32:55.876Z,54.80
2018-06-01T17:35:23.452Z,54.40
2018-06-01T17:37:51.804Z,54.50
2018-06-01T17:40:19.363Z,54.50
2018-06-01T17:42:46.951Z,54.60
2018-06-01T17:45:15.306Z,54.80
2018-06-01T17:47:43.699Z,55.30
2018-06-01T17:50:11.263Z,54.80
2018-06-01T17:52:38.863Z,54.90
2018-06-01T17:55:07.174Z,55.00
2018-06-01T17:57:34.762Z,55.00
2018-06-01T18:00:02.333Z,55.00
2018-06-01T18:02:29.997Z,55.20
2018-06-01T18:04:57.589Z,55.40
2018-06-01T18:07:25.177Z,55.50
2018-06-01T18:09:52.750Z,55.70
2018-06-01T18:12:20.335Z,55.70
2018-06-01T18:14:47.910Z,55.60
2018-06-01T18:17:15.508Z,55.90
2018-06-01T18:19:43.059Z,56.00
2018-06-01T18:22:10.647Z,56.20
2018-06-01T18:24:38.982Z,56.30
2018-06-01T18:27:06.586Z,56.30
2018-06-01T18:29:34.209Z,56.30
2018-06-01T18:32:01.773Z,56.40
2018-06-01T18:34:29.355Z,56.40
2018-06-01T18:36:56.966Z,56.30
2018-06-01T18:39:25.297Z,56.40
2018-06-01T18:41:52.890Z,56.40
2018-06-01T18:44:20.488Z,56.50
2018-06-01T18:46:48.851Z,56.70
2018-06-01T18:49:17.221Z,56.90
2018-06-01T18:51:44.835Z,56.80
2018-06-01T18:54:12.397Z,57.00
2018-06-01T18:56:39.992Z,57.00
2018-06-01T18:59:07.558Z,57.20
2018-06-01T19:01:35.156Z,57.20
2018-06-01T19:04:03.495Z,57.60
2018-06-01T19:06:31.104Z,57.60
2018-06-01T19:08:58.690Z,58.70
2018-06-01T19:11:27.652Z,59.00
2018-06-01T19:13:55.211Z,58.90
2018-06-01T19:16:23.565Z,59.00
2018-06-01T19:18:51.148Z,59.30
2018-06-01T19:21:18.752Z,59.50
2018-06-01T19:23:46.436Z,59.60
2018-06-01T19:26:13.960Z,59.80
2018-06-01T19:28:41.557Z,60.00
2018-06-01T19:31:09.870Z,60.10
2018-06-01T19:33:37.459Z,60.00
2018-06-01T19:36:05.010Z,60.10
2018-06-01T19:38:32.591Z,60.40
2018-06-01T19:41:00.177Z,60.80
2018-06-01T19:43:27.773Z,61.00
2018-06-01T19:45:56.117Z,61.20
2018-06-01T19:48:23.755Z,61.30
2018-06-01T19:50:51.307Z,61.40
2018-06-01T19:53:18.906Z,62.20
2018-06-01T19:55:46.477Z,61.30
2018-06-01T19:58:14.076Z,61.40
2018-06-01T20:00:42.413Z,61.30
2018-06-01T20:03:10.007Z,61.30
2018-06-01T20:05:37.588Z,61.90
2018-06-01T20:08:05.952Z,61.40
2018-06-01T20:10:34.286Z,61.70
2018-06-01T20:13:01.895Z,61.60
2018-06-01T20:15:29.462Z,61.50
2018-06-01T20:17:57.006Z,61.60
2018-06-01T20:20:24.595Z,61.70
2018-06-01T20:22:52.189Z,61.80
2018-06-01T20:25:19.773Z,61.80
2018-06-01T20:27:47.355Z,61.90
2018-06-01T20:30:14.951Z,61.90
2018-06-01T20:32:42.529Z,62.00
2018-06-01T20:35:10.884Z,62.20
2018-06-01T20:37:38.441Z,62.20
2018-06-01T20:40:06.018Z,62.40
2018-06-01T20:42:33.577Z,62.40
2018-06-01T20:45:01.175Z,62.40
2018-06-01T20:47:29.506Z,62.70
2018-06-01T20:49:57.105Z,62.60
2018-06-01T20:52:25.468Z,62.70
2018-06-01T20:54:53.077Z,62.60
2018-06-01T20:57:21.399Z,62.70
2018-06-01T20:59:48.991Z,62.70
2018-06-01T21:02:16.590Z,62.70
2018-06-01T21:04:44.920Z,62.70
2018-06-01T21:07:12.510Z,62.70
2018-06-01T21:09:40.133Z,62.80
2018-06-01T21:12:07.691Z,62.80
2018-06-01T21:14:35.249Z,62.80
2018-06-01T21:17:02.835Z,62.80
2018-06-01T21:19:30.404Z,62.80
2018-06-01T21:21:57.993Z,62.80
2018-06-01T21:24:25.600Z,62.80
2018-06-01T21:26:53.180Z,62.80
2018-06-01T21:29:20.779Z,62.80
2018-06-01T21:31:48.335Z,62.80
2018-06-01T21:34:15.935Z,62.80
2018-06-01T21:36:43.498Z,62.80
2018-06-01T21:39:11.152Z,62.80
2018-06-01T21:41:38.706Z,63.30
2018-06-01T21:44:06.293Z,62.80
2018-06-01T21:46:33.857Z,62.80
2018-06-01T21:49:01.442Z,62.80
2018-06-01T21:51:29.771Z,62.80
2018-06-01T21:53:57.356Z,62.80
2018-06-01T21:56:24.917Z,62.90
2018-06-01T21:58:52.499Z,62.90
2018-06-01T22:01:20.067Z,62.80
2018-06-01T22:03:47.754Z,63.10
2018-06-01T22:06:16.076Z,63.30
2018-06-01T22:08:43.633Z,63.30
2018-06-01T22:11:11.227Z,63.80
2018-06-01T22:13:38.792Z,64.00
2018-06-01T22:16:06.383Z,64.30
2018-06-01T22:18:33.954Z,64.40
2018-06-01T22:21:02.300Z,64.30
2018-06-01T22:23:29.883Z,64.40
2018-06-01T22:25:57.473Z,64.40
2018-06-01T22:28:25.807Z,64.40
2018-06-01T22:30:53.398Z,64.20
2018-06-01T22:33:21.041Z,64.40
2018-06-01T22:35:48.683Z,64.50
2018-06-01T22:38:16.268Z,64.40
2018-06-01T22:40:45.071Z,64.40
2018-06-01T22:43:12.630Z,64.50
2018-06-01T22:45:40.218Z,64.50
2018-06-01T22:48:07.784Z,64.40
2018-06-01T22:50:35.348Z,64.40
2018-06-01T22:53:02.968Z,64.20
2018-06-01T22:55:30.560Z,64.40
2018-06-01T22:57:58.160Z,64.30
2018-06-01T23:00:30.411Z,64.30
2018-06-01T23:02:58.003Z,64.50
2018-06-01T23:05:26.427Z,64.60
2018-06-01T23:07:54.052Z,64.60
2018-06-01T23:10:21.625Z,64.60
2018-06-01T23:12:50.046Z,64.80
2018-06-01T23:15:17.625Z,64.80
2018-06-01T23:17:45.229Z,64.90
2018-06-01T23:20:12.797Z,65.00
2018-06-01T23:22:41.151Z,65.10
2018-06-01T23:25:08.711Z,65.10
2018-06-01T23:27:36.301Z,65.10
2018-06-01T23:30:03.860Z,65.00
2018-06-01T23:32:31.496Z,65.10
2018-06-01T23:34:59.049Z,65.20
2018-06-01T23:37:26.613Z,65.20
2018-06-01T23:39:54.275Z,65.40
2018-06-01T23:42:22.002Z,65.30
2018-06-01T23:44:50.395Z,65.20
2018-06-01T23:47:18.039Z,65.20
2018-06-01T23:49:46.558Z,65.20
2018-06-01T23:52:14.170Z,65.30
2018-06-01T23:54:41.742Z,65.30
2018-06-01T23:57:09.336Z,65.20
2018-06-01T23:59:37.719Z,65.40
